sensor_id;sensor_type;location;lat;lon;timestamp;pressure;altitude;pressure_sealevel;temperature;humidity
64352;BME280;50680;52.626;-8.668;2024-03-02T19:45:38;99912.81;;;4.27;100.00
64352;BME280;50680;52.626;-8.668;2024-03-02T19:48:05;99929.72;;;4.36;100.00
64352;BME280;50680;52.626;-8.668;2024-03-02T19:50:32;99917.03;;;4.30;100.00
64352;BME280;50680;52.626;-8.668;2024-03-02T19:52:59;99925.16;;;4.22;100.00
64352;BME280;50680;52.626;-8.668;2024-03-02T19:55:25;99920.88;;;4.21;100.00
64352;BME280;50680;52.626;-8.668;2024-03-02T19:57:56;99929.00;;;4.32;100.00
64352;BME280;50680;52.626;-8.668;2024-03-02T20:00:24;99922.63;;;4.40;100.00
64352;BME280;50680;52.626;-8.668;2024-03-02T20:02:51;99930.94;;;4.46;100.00
64352;BME280;50680;52.626;-8.668;2024-03-02T20:05:17;99928.47;;;4.45;100.00
64352;BME280;50680;52.626;-8.668;2024-03-02T20:07:44;99937.69;;;4.50;100.00
64352;BME280;50680;52.626;-8.668;2024-03-02T20:10:11;99928.91;;;4.53;100.00
64352;BME280;50680;52.626;-8.668;2024-03-02T20:12:39;99921.38;;;4.48;100.00
64352;BME280;50680;52.626;-8.668;2024-03-02T20:15:08;99929.16;;;4.48;100.00
64352;BME280;50680;52.626;-8.668;2024-03-02T20:17:39;99926.06;;;4.40;100.00
64352;BME280;50680;52.626;-8.668;2024-03-02T20:20:06;99925.63;;;4.30;100.00
64352;BME280;50680;52.626;-8.668;2024-03-02T20:22:35;99925.22;;;4.21;100.00
64352;BME280;50680;52.626;-8.668;2024-03-02T20:25:02;99921.06;;;4.17;100.00
64352;BME280;50680;52.626;-8.668;2024-03-02T20:27:30;99918.00;;;4.08;100.00
64352;BME280;50680;52.626;-8.668;2024-03-02T20:29:57;99932.94;;;4.03;100.00
64352;BME280;50680;52.626;-8.668;2024-03-02T20:32:24;99929.84;;;3.95;100.00
64352;BME280;50680;52.626;-8.668;2024-03-02T20:34:52;99918.97;;;3.87;100.00
64352;BME280;50680;52.626;-8.668;2024-03-02T20:37:19;99916.44;;;3.85;100.00
64352;BME280;50680;52.626;-8.668;2024-03-02T20:39:50;99918.31;;;3.82;100.00
64352;BME280;50680;52.626;-8.668;2024-03-02T20:42:19;99923.38;;;3.85;100.00
64352;BME280;50680;52.626;-8.668;2024-03-02T20:44:46;99921.50;;;3.88;100.00
64352;BME280;50680;52.626;-8.668;2024-03-02T20:47:13;99924.53;;;3.98;100.00
64352;BME280;50680;52.626;-8.668;2024-03-02T20:49:40;99926.81;;;4.04;100.00
64352;BME280;50680;52.626;-8.668;2024-03-02T20:52:10;99922.47;;;4.05;100.00
64352;BME280;50680;52.626;-8.668;2024-03-02T20:54:37;99922.41;;;4.06;100.00
64352;BME280;50680;52.626;-8.668;2024-03-02T20:57:04;99927.03;;;4.19;100.00
64352;BME280;50680;52.626;-8.668;2024-03-02T20:59:33;99924.81;;;4.30;100.00
64352;BME280;50680;52.626;-8.668;2024-03-02T21:02:00;99922.84;;;4.35;100.00
64352;BME280;50680;52.626;-8.668;2024-03-02T21:04:27;99924.09;;;4.45;100.00
64352;BME280;50680;52.626;-8.668;2024-03-02T21:06:54;99917.38;;;4.41;100.00
64352;BME280;50680;52.626;-8.668;2024-03-02T21:09:21;99916.16;;;4.48;100.00
64352;BME280;50680;52.626;-8.668;2024-03-02T21:11:48;99914.41;;;4.49;100.00
64352;BME280;50680;52.626;-8.668;2024-03-02T21:14:15;99918.47;;;4.55;100.00
64352;BME280;50680;52.626;-8.668;2024-03-02T21:16:42;99926.09;;;4.58;100.00
64352;BME280;50680;52.626;-8.668;2024-03-02T21:19:09;99921.41;;;4.66;100.00
64352;BME280;50680;52.626;-8.668;2024-03-02T21:21:41;99930.78;;;4.68;100.00
64352;BME280;50680;52.626;-8.668;2024-03-02T21:24:08;99930.44;;;4.76;100.00
64352;BME280;50680;52.626;-8.668;2024-03-02T21:26:41;99925.19;;;4.78;100.00
64352;BME280;50680;52.626;-8.668;2024-03-02T21:29:09;99922.47;;;4.79;100.00
64352;BME280;50680;52.626;-8.668;2024-03-02T21:31:37;99917.84;;;4.86;100.00
64352;BME280;50680;52.626;-8.668;2024-03-02T21:34:04;99927.09;;;4.92;100.00
64352;BME280;50680;52.626;-8.668;2024-03-02T21:36:32;99927.09;;;4.92;100.00
64352;BME280;50680;52.626;-8.668;2024-03-02T21:38:59;99923.56;;;4.93;100.00
64352;BME280;50680;52.626;-8.668;2024-03-02T21:41:31;99915.56;;;4.97;100.00
64352;BME280;50680;52.626;-8.668;2024-03-02T21:43:57;99923.28;;;4.99;100.00
64352;BME280;50680;52.626;-8.668;2024-03-02T21:46:24;99914.75;;;4.97;100.00
64352;BME280;50680;52.626;-8.668;2024-03-02T21:48:51;99917.78;;;5.05;100.00
64352;BME280;50680;52.626;-8.668;2024-03-02T21:51:19;99917.84;;;5.03;100.00
64352;BME280;50680;52.626;-8.668;2024-03-02T21:53:46;99919.47;;;5.06;100.00
64352;BME280;50680;52.626;-8.668;2024-03-02T21:56:13;99921.84;;;5.11;100.00
64352;BME280;50680;52.626;-8.668;2024-03-02T21:58:40;99919.00;;;5.15;100.00
64352;BME280;50680;52.626;-8.668;2024-03-02T22:01:07;99912.16;;;5.14;100.00
64352;BME280;50680;52.626;-8.668;2024-03-02T22:03:34;99918.16;;;5.15;100.00
64352;BME280;50680;52.626;-8.668;2024-03-02T22:06:01;99917.28;;;5.16;100.00
64352;BME280;50680;52.626;-8.668;2024-03-02T22:08:28;99911.13;;;5.17;100.00
64352;BME280;50680;52.626;-8.668;2024-03-02T22:10:55;99906.75;;;5.17;100.00
64352;BME280;50680;52.626;-8.668;2024-03-02T22:13:22;99909.38;;;5.17;100.00
64352;BME280;50680;52.626;-8.668;2024-03-02T22:15:49;99908.53;;;5.17;100.00
64352;BME280;50680;52.626;-8.668;2024-03-02T22:18:16;99905.19;;;5.15;100.00
64352;BME280;50680;52.626;-8.668;2024-03-02T22:20:43;99907.78;;;5.15;100.00
64352;BME280;50680;52.626;-8.668;2024-03-02T22:23:10;99902.03;;;5.08;100.00
64352;BME280;50680;52.626;-8.668;2024-03-02T22:25:37;99897.78;;;5.07;100.00
64352;BME280;50680;52.626;-8.668;2024-03-02T22:28:04;99906.94;;;5.14;100.00
64352;BME280;50680;52.626;-8.668;2024-03-02T22:30:31;99906.88;;;5.16;100.00
64352;BME280;50680;52.626;-8.668;2024-03-02T22:32:58;99903.25;;;5.18;100.00
64352;BME280;50680;52.626;-8.668;2024-03-02T22:35:25;99915.19;;;5.22;100.00
64352;BME280;50680;52.626;-8.668;2024-03-02T22:37:52;99907.47;;;5.21;100.00
64352;BME280;50680;52.626;-8.668;2024-03-02T22:40:19;99908.16;;;5.24;100.00
64352;BME280;50680;52.626;-8.668;2024-03-02T22:42:49;99909.16;;;5.22;100.00
64352;BME280;50680;52.626;-8.668;2024-03-02T22:45:16;99909.97;;;5.22;100.00
64352;BME280;50680;52.626;-8.668;2024-03-02T22:47:43;99906.09;;;5.14;100.00
64352;BME280;50680;52.626;-8.668;2024-03-02T22:50:10;99906.41;;;5.07;100.00
64352;BME280;50680;52.626;-8.668;2024-03-02T22:52:37;99907.84;;;5.13;100.00
64352;BME280;50680;52.626;-8.668;2024-03-02T22:55:04;99907.09;;;5.11;100.00
64352;BME280;50680;52.626;-8.668;2024-03-02T22:57:31;99903.13;;;5.21;100.00
64352;BME280;50680;52.626;-8.668;2024-03-02T22:59:58;99907.38;;;5.22;100.00
64352;BME280;50680;52.626;-8.668;2024-03-02T23:02:25;99903.03;;;5.23;100.00
64352;BME280;50680;52.626;-8.668;2024-03-02T23:04:52;99896.91;;;5.24;100.00
64352;BME280;50680;52.626;-8.668;2024-03-02T23:07:19;99902.19;;;5.22;100.00
64352;BME280;50680;52.626;-8.668;2024-03-02T23:09:46;99905.72;;;5.21;100.00
64352;BME280;50680;52.626;-8.668;2024-03-02T23:12:13;99897.84;;;5.23;100.00
64352;BME280;50680;52.626;-8.668;2024-03-02T23:14:40;99895.94;;;5.26;100.00
64352;BME280;50680;52.626;-8.668;2024-03-02T23:17:07;99887.38;;;5.24;100.00
64352;BME280;50680;52.626;-8.668;2024-03-02T23:19:34;99891.91;;;5.21;100.00
64352;BME280;50680;52.626;-8.668;2024-03-02T23:22:01;99886.59;;;5.22;100.00
64352;BME280;50680;52.626;-8.668;2024-03-02T23:24:28;99883.72;;;5.11;100.00
64352;BME280;50680;52.626;-8.668;2024-03-02T23:26:55;99880.78;;;5.00;100.00
64352;BME280;50680;52.626;-8.668;2024-03-02T23:29:22;99880.34;;;4.92;100.00
64352;BME280;50680;52.626;-8.668;2024-03-02T23:31:49;99889.03;;;4.90;100.00
64352;BME280;50680;52.626;-8.668;2024-03-02T23:34:16;99876.97;;;4.89;100.00
64352;BME280;50680;52.626;-8.668;2024-03-02T23:36:43;99879.81;;;4.85;100.00
64352;BME280;50680;52.626;-8.668;2024-03-02T23:39:10;99869.72;;;4.79;100.00
64352;BME280;50680;52.626;-8.668;2024-03-02T23:41:37;99867.50;;;4.71;100.00
64352;BME280;50680;52.626;-8.668;2024-03-02T23:44:04;99883.00;;;4.73;100.00
64352;BME280;50680;52.626;-8.668;2024-03-02T23:46:34;99878.94;;;4.67;100.00
64352;BME280;50680;52.626;-8.668;2024-03-02T23:49:01;99882.06;;;4.74;100.00
64352;BME280;50680;52.626;-8.668;2024-03-02T23:51:29;99885.53;;;4.74;100.00
64352;BME280;50680;52.626;-8.668;2024-03-02T23:53:56;99886.56;;;4.70;100.00
64352;BME280;50680;52.626;-8.668;2024-03-02T23:56:23;99889.31;;;4.67;100.00
64352;BME280;50680;52.626;-8.668;2024-03-02T23:58:52;99889.66;;;4.78;100.00
